Time;durP1;ratioP1;P1;durP2;ratioP2;P2;SDS_P1;SDS_P2;PMS_P1;PMS_P2;Temp;Humidity;BMP_temperature;BMP_pressure;BME280_temperature;BME280_humidity;BME280_pressure;Samples;Min_cycle;Max_cycle;Signal;HPM_P1;HPM_P2
2022/01/25 00:15:32;;;;;;;13.22;5.45;;;;;;;-6.17;77.68;140780.30;1754583;82;21746;-60
2022/01/25 00:26:20;;;;;;;13.03;6.53;;;;;;;-6.31;78.73;140745.69;1780632;81;21015;-60
2022/01/25 00:29:02;;;;;;;17.77;6.50;;;;;;;-6.26;78.78;140759.27;1726544;83;21092;-64
2022/01/25 00:31:16;;;;;;;13.22;6.80;;;;;;;-6.20;78.64;140772.91;1730637;79;21492;-61
2022/01/25 00:33:53;;;;;;;14.65;8.10;;;;;;;-6.16;78.54;140782.75;1758883;80;21017;-61
2022/01/25 00:36:23;;;;;;;18.75;8.10;;;;;;;-6.13;78.46;140790.16;1720942;83;21583;-59
2022/01/25 00:38:52;;;;;;;15.57;7.30;;;;;;;-6.12;78.45;140792.66;1779591;79;21008;-64
2022/01/25 00:41:21;;;;;;;17.10;7.25;;;;;;;-6.05;78.54;140809.97;1780461;81;21541;-61
2022/01/25 00:43:49;;;;;;;12.73;6.50;;;;;;;-6.07;78.32;140805.02;1763868;80;21004;-59
2022/01/25 00:46:20;;;;;;;14.20;7.42;;;;;;;-6.09;78.31;140800.06;1758894;80;21051;-58
2022/01/25 00:48:52;;;;;;;12.20;6.90;;;;;;;-6.05;78.18;140809.97;1720807;82;21059;-58
2022/01/25 00:54:12;;;;;;;15.72;7.47;;;;;;;-5.97;77.98;140829.73;1756852;80;21036;-58
2022/01/25 00:56:45;;;;;;;15.70;7.35;;;;;;;-5.99;78.07;140824.78;1774723;81;21485;-58
2022/01/25 00:59:23;;;;;;;14.03;7.12;;;;;;;-5.95;77.97;140834.69;1778062;79;20992;-58
2022/01/25 01:01:54;;;;;;;11.73;5.90;;;;;;;-5.97;77.67;140828.52;1779463;81;21016;-59
2022/01/25 01:04:22;;;;;;;13.78;7.03;;;;;;;-6.09;77.78;140800.06;1777884;79;20992;-59
2022/01/25 01:06:49;;;;;;;15.70;6.92;;;;;;;-6.13;77.90;140790.16;1717216;83;21103;-59
2022/01/25 01:09:21;;;;;;;16.02;7.55;;;;;;;-6.16;78.00;140782.75;1716635;83;21059;-59
2022/01/25 01:11:58;;;;;;;13.13;6.65;;;;;;;-6.20;78.07;140774.13;1747754;81;21000;-60
2022/01/25 01:14:39;;;;;;;14.43;6.87;;;;;;;-6.20;78.24;140772.91;1748186;81;21034;-60
2022/01/25 01:17:21;;;;;;;17.55;7.90;;;;;;;-6.22;78.35;140767.94;1746628;81;21021;-59
2022/01/25 01:30:46;;;;;;;13.83;6.78;;;;;;;-6.20;78.98;140772.91;1773333;79;21127;-59
2022/01/25 01:44:00;;;;;;;19.92;9.35;;;;;;;-5.87;78.67;140853.19;1719543;81;21045;-60
2022/01/25 01:46:38;;;;;;;20.10;9.65;;;;;;;-5.79;78.44;140871.73;1719364;83;21036;-59
2022/01/25 01:49:02;;;;;;;18.35;9.23;;;;;;;-5.71;78.36;140892.72;1718438;83;21037;-58
2022/01/25 01:51:34;;;;;;;16.05;9.05;;;;;;;-5.80;77.81;140869.23;1719209;83;21025;-58
2022/01/25 01:54:13;;;;;;;18.55;7.97;;;;;;;-5.90;78.10;140847.00;1719424;82;21463;-58
2022/01/25 01:56:42;;;;;;;17.82;9.25;;;;;;;-5.87;78.27;140851.97;1773069;81;21003;-58
2022/01/25 01:59:13;;;;;;;19.57;8.83;;;;;;;-5.84;78.41;140859.38;1774979;81;21481;-57
2022/01/25 02:01:44;;;;;;;18.07;8.70;;;;;;;-5.78;78.39;140874.19;1774799;79;21044;-60
2022/01/25 02:04:14;;;;;;;16.27;9.10;;;;;;;-5.77;78.12;140876.69;1774896;79;20979;-59
2022/01/25 02:06:42;;;;;;;21.07;8.95;;;;;;;-5.83;78.09;140863.05;1753441;81;21057;-59
2022/01/25 02:09:10;;;;;;;15.78;8.08;;;;;;;-5.90;78.11;140847.00;1715691;82;21647;-58
2022/01/25 02:11:39;;;;;;;22.20;8.53;;;;;;;-5.95;78.39;140834.69;1756820;82;20993;-58
2022/01/25 02:14:09;;;;;;;17.70;8.68;;;;;;;-5.98;78.73;140827.28;1758607;80;21489;-60
2022/01/25 02:24:47;;;;;;;20.72;9.78;;;;;;;-6.05;79.75;140809.97;1727182;82;21055;-57
2022/01/25 02:27:14;;;;;;;18.07;9.45;;;;;;;-6.04;79.88;140812.42;1727062;82;21156;-58
2022/01/25 02:29:41;;;;;;;20.60;8.83;;;;;;;-6.01;80.20;140818.61;1753305;80;21170;-59
2022/01/25 02:32:10;;;;;;;17.40;9.10;;;;;;;-6.10;80.51;140797.63;1777688;81;21094;-59
2022/01/25 02:34:37;;;;;;;22.37;11.15;;;;;;;-6.16;81.01;140782.75;1758067;80;21028;-59
2022/01/25 02:37:12;;;;;;;19.80;9.63;;;;;;;-6.09;81.41;140800.06;1756798;82;21028;-59
2022/01/25 02:39:42;;;;;;;16.62;8.65;;;;;;;-6.02;81.54;140817.38;1766358;81;21536;-59
2022/01/25 02:42:12;;;;;;;19.10;9.78;;;;;;;-5.95;81.44;140834.69;1780286;79;21524;-59
2022/01/25 02:44:42;;;;;;;19.27;9.55;;;;;;;-5.88;81.59;140850.69;1761490;80;21012;-59
2022/01/25 02:49:55;;;;;;;18.92;9.65;;;;;;;-5.96;81.83;140832.19;1771627;79;21502;-58
2022/01/25 02:52:22;;;;;;;19.52;9.40;;;;;;;-6.05;82.33;140808.75;1757080;82;21000;-60
2022/01/25 02:54:50;;;;;;;20.25;10.45;;;;;;;-6.11;82.62;140795.11;1720978;83;21015;-59
2022/01/25 02:57:17;;;;;;;22.40;10.82;;;;;;;-6.14;82.95;140787.72;1756957;82;21055;-60
2022/01/25 02:59:44;;;;;;;19.65;9.60;;;;;;;-6.12;83.22;140793.89;1760707;81;21023;-60
2022/01/25 03:02:11;;;;;;;21.57;9.48;;;;;;;-6.17;83.37;140780.30;1780224;81;21019;-59
2022/01/25 03:04:39;;;;;;;19.80;9.30;;;;;;;-6.25;83.74;140760.55;1780602;81;21508;-59
2022/01/25 03:07:07;;;;;;;13.85;8.18;;;;;;;-6.32;83.83;140744.47;1780170;79;21059;-58
2022/01/25 03:09:40;;;;;;;14.75;8.13;;;;;;;-6.37;84.00;140732.11;1715689;83;21213;-59
2022/01/25 03:12:12;;;;;;;16.52;8.18;;;;;;;-6.36;84.26;140735.83;1747084;81;21056;-59
2022/01/25 03:14:57;;;;;;;18.02;9.08;;;;;;;-6.28;84.42;140754.36;1723442;83;20996;-58
2022/01/25 03:17:10;;;;;;;16.42;7.72;;;;;;;-6.22;84.30;140767.94;1756637;81;21051;-58
2022/01/25 03:22:32;;;;;;;14.47;7.80;;;;;;;-6.32;83.36;140743.23;1785240;79;21008;-57
2022/01/25 03:24:43;;;;;;;18.70;8.70;;;;;;;-6.38;83.35;140730.88;1779794;80;21020;-58
2022/01/25 03:27:10;;;;;;;18.25;8.78;;;;;;;-6.48;83.52;140706.17;1776292;80;21092;-59
2022/01/25 03:29:37;;;;;;;20.08;9.78;;;;;;;-6.52;83.92;140696.27;1722821;83;21050;-59
2022/01/25 03:32:06;;;;;;;22.62;11.35;;;;;;;-6.47;84.05;140708.63;1783407;80;21054;-58
2022/01/25 03:34:33;;;;;;;20.00;9.98;;;;;;;-6.43;83.93;140718.53;1785374;80;21000;-57
2022/01/25 03:37:00;;;;;;;24.18;10.98;;;;;;;-6.37;83.91;140733.33;1781986;80;21540;-58
2022/01/25 03:39:27;;;;;;;18.50;9.08;;;;;;;-6.29;83.86;140751.86;1759319;81;21498;-58
2022/01/25 03:41:54;;;;;;;19.98;10.60;;;;;;;-6.27;83.24;140755.59;1723086;82;21521;-58
2022/01/25 03:44:21;;;;;;;15.60;8.08;;;;;;;-6.25;82.74;140760.55;1759185;81;20997;-60
2022/01/25 03:52:01;;;;;;;17.15;8.38;;;;;;;-6.39;82.25;140728.38;1785296;80;21027;-61
2022/01/25 03:54:27;;;;;;;21.77;10.28;;;;;;;-6.36;82.41;140735.83;1785513;80;20982;-60
2022/01/25 03:56:54;;;;;;;19.77;9.28;;;;;;;-6.19;82.87;140775.34;1785407;79;21034;-62
2022/01/25 03:59:21;;;;;;;22.77;9.83;;;;;;;-6.05;82.53;140809.97;1764245;80;22161;-59
2022/01/25 04:01:48;;;;;;;20.97;10.50;;;;;;;-6.04;81.84;140812.42;1722982;83;21477;-61
2022/01/25 04:04:18;;;;;;;21.00;9.55;;;;;;;-6.06;81.31;140807.47;1759248;81;21101;-61
2022/01/25 04:06:48;;;;;;;19.98;11.20;;;;;;;-6.11;81.01;140795.11;1722874;83;21070;-61
2022/01/25 04:09:12;;;;;;;25.90;10.82;;;;;;;-6.17;81.25;140780.30;1792426;80;21504;-60
2022/01/25 04:11:39;;;;;;;26.75;11.45;;;;;;;-6.17;81.52;140781.53;1788546;79;20967;-61
2022/01/25 04:14:06;;;;;;;25.90;9.38;;;;;;;-6.20;81.33;140772.91;1788449;80;21543;-62
2022/01/25 04:16:41;;;;;;;25.97;11.83;;;;;;;-6.22;81.16;140769.17;1788274;80;21488;-59
2022/01/25 04:19:11;;;;;;;24.55;11.60;;;;;;;-6.25;81.07;140760.55;1774186;80;21521;-62
2022/01/25 04:26:55;;;;;;;16.62;8.50;;;;;;;-6.17;80.76;140781.53;1713199;84;21569;-61
2022/01/25 04:29:22;;;;;;;16.65;7.87;;;;;;;-6.38;80.93;140729.66;1769425;81;21035;-61
2022/01/25 04:31:50;;;;;;;16.57;8.15;;;;;;;-6.46;80.75;140711.12;1774713;81;21031;-60
2022/01/25 04:53:08;;;;;;;17.05;8.60;;;;;;;-6.89;81.71;140606.13;1752699;81;20988;-61
2022/01/25 04:55:34;;;;;;;15.98;8.85;;;;;;;-6.73;81.78;140644.41;1713442;83;20992;-61
2022/01/25 04:58:01;;;;;;;17.40;9.73;;;;;;;-6.62;81.69;140671.56;1773888;81;21462;-61
2022/01/25 05:00:24;;;;;;;19.87;11.60;;;;;;;-6.58;81.21;140682.69;1773869;79;21015;-60
2022/01/25 05:03:07;;;;;;;26.02;15.30;;;;;;;-6.55;81.56;140688.86;1757185;80;21075;-59
2022/01/25 05:10:22;;;;;;;17.30;8.80;;;;;;;-6.51;80.93;140698.77;1716708;82;21072;-59
2022/01/25 05:13:13;;;;;;;15.25;8.45;;;;;;;-6.54;80.84;140691.31;1769562;79;20976;-60
2022/01/25 05:15:48;;;;;;;16.73;9.58;;;;;;;-6.59;81.13;140678.97;1773384;81;21430;-58
2022/01/25 05:18:10;;;;;;;17.02;8.55;;;;;;;-6.64;81.02;140666.61;1775369;81;20972;-59
2022/01/25 05:23:15;;;;;;;16.17;8.63;;;;;;;-6.63;81.33;140669.11;1767197;79;20980;-58
2022/01/25 05:25:42;;;;;;;20.72;9.18;;;;;;;-6.53;81.54;140692.59;1721112;83;20975;-58
2022/01/25 05:28:09;;;;;;;25.15;11.30;;;;;;;-6.45;81.41;140713.58;1759709;81;21458;-60
2022/01/25 05:30:37;;;;;;;16.20;8.68;;;;;;;-6.37;81.20;140733.33;1757260;80;20941;-60
2022/01/25 05:33:04;;;;;;;19.50;10.28;;;;;;;-6.34;80.82;140740.73;1720505;82;20968;-58
2022/01/25 05:35:31;;;;;;;17.62;9.20;;;;;;;-6.36;80.62;140735.83;1780467;81;21925;-60
2022/01/25 05:37:58;;;;;;;14.90;7.62;;;;;;;-6.48;80.61;140704.94;1780501;80;20952;-60
2022/01/25 05:40:42;;;;;;;14.53;8.20;;;;;;;-6.57;80.94;140683.91;1779628;81;21012;-60
2022/01/25 05:45:59;;;;;;;23.12;13.88;;;;;;;-6.58;81.10;140682.69;1757185;80;20984;-61
2022/01/25 05:48:26;;;;;;;22.42;12.35;;;;;;;-6.66;80.97;140661.70;1757188;81;21031;-60
2022/01/25 05:50:53;;;;;;;13.30;7.47;;;;;;;-6.65;81.08;140664.16;1759092;81;20980;-61
2022/01/25 05:53:20;;;;;;;14.53;7.75;;;;;;;-6.72;80.91;140648.09;1780472;79;20948;-61
2022/01/25 05:55:48;;;;;;;13.30;6.92;;;;;;;-6.81;80.95;140627.11;1780464;80;21434;-61
2022/01/25 05:58:14;;;;;;;11.65;6.15;;;;;;;-6.85;81.03;140617.22;1780468;79;20991;-60
2022/01/25 06:00:41;;;;;;;13.68;7.05;;;;;;;-6.89;80.94;140607.36;1780462;80;20976;-60
2022/01/25 06:03:07;;;;;;;12.45;7.12;;;;;;;-6.92;81.06;140599.95;1760015;81;20964;-59
2022/01/25 06:05:35;;;;;;;13.50;6.72;;;;;;;-6.98;80.99;140585.11;1720129;83;21030;-61
2022/01/25 06:08:03;;;;;;;14.90;7.17;;;;;;;-7.01;81.16;140577.72;1780401;80;20960;-61
2022/01/25 06:10:31;;;;;;;12.98;7.50;;;;;;;-7.09;81.22;140557.97;1756491;81;20981;-61
2022/01/25 06:12:58;;;;;;;26.62;14.03;;;;;;;-7.13;81.68;140549.30;1713303;82;20988;-61
2022/01/25 06:15:27;;;;;;;16.85;8.90;;;;;;;-7.07;81.82;140562.86;1749114;81;21493;-62
2022/01/25 06:17:54;;;;;;;17.95;9.78;;;;;;;-6.97;82.04;140587.61;1712295;84;20968;-61
2022/01/25 06:20:20;;;;;;;15.53;7.83;;;;;;;-6.79;82.03;140632.06;1775174;81;20975;-61
2022/01/25 06:22:47;;;;;;;21.30;11.10;;;;;;;-6.61;82.01;140675.28;1775029;79;20979;-62
2022/01/25 06:25:15;;;;;;;20.32;11.40;;;;;;;-6.38;82.16;140729.66;1773904;81;21015;-62
2022/01/25 06:27:43;;;;;;;17.85;8.78;;;;;;;-6.24;81.40;140764.22;1749568;81;21029;-61
2022/01/25 06:30:17;;;;;;;15.65;8.33;;;;;;;-6.17;80.87;140780.30;1713393;84;20961;-61
2022/01/25 06:32:45;;;;;;;18.23;9.33;;;;;;;-6.07;80.90;140803.80;1749383;81;21024;-60
2022/01/25 06:35:13;;;;;;;16.12;8.55;;;;;;;-6.01;80.32;140818.61;1713479;84;20963;-60
2022/01/25 06:37:40;;;;;;;15.98;8.98;;;;;;;-5.93;79.83;140839.59;1713333;84;21074;-59
2022/01/25 06:40:09;;;;;;;15.43;8.50;;;;;;;-5.83;79.69;140861.83;1749371;81;21470;-62
2022/01/25 06:42:36;;;;;;;17.42;8.75;;;;;;;-5.80;79.11;140870.50;1713182;82;20992;-59
2022/01/25 06:45:09;;;;;;;13.98;7.30;;;;;;;-5.77;78.78;140877.91;1775139;81;20971;-59
2022/01/25 06:47:34;;;;;;;12.93;7.78;;;;;;;-5.81;79.04;140868.00;1774983;80;21505;-59
2022/01/25 06:50:01;;;;;;;15.38;7.53;;;;;;;-5.77;78.92;140876.69;1775090;79;20960;-59
2022/01/25 06:52:28;;;;;;;13.55;8.38;;;;;;;-5.67;79.10;140901.41;1759469;81;20981;-61
2022/01/25 06:54:55;;;;;;;13.28;7.85;;;;;;;-5.52;79.01;140938.50;1751217;81;21430;-59
2022/01/25 06:57:21;;;;;;;14.90;8.55;;;;;;;-5.41;78.47;140963.23;1749243;81;21499;-59
2022/01/25 06:59:48;;;;;;;13.50;7.80;;;;;;;-5.34;78.08;140980.52;1707596;84;20996;-58
2022/01/25 07:02:15;;;;;;;14.33;7.53;;;;;;;-5.27;77.92;140999.06;1750473;81;20990;-59
2022/01/25 07:04:42;;;;;;;14.87;7.70;;;;;;;-5.23;77.39;141007.75;1710555;83;20964;-60
2022/01/25 07:07:09;;;;;;;15.83;8.05;;;;;;;-5.18;77.49;141020.12;1713335;84;20941;-58
2022/01/25 07:09:36;;;;;;;16.32;8.33;;;;;;;-5.10;77.02;141038.67;1747490;81;20996;-60
2022/01/25 07:12:04;;;;;;;18.40;7.50;;;;;;;-5.07;76.50;141047.31;1745091;82;21431;-60
2022/01/25 07:14:31;;;;;;;12.28;7.30;;;;;;;-5.10;76.24;141038.67;1749624;81;20933;-59
2022/01/25 07:16:57;;;;;;;14.05;6.92;;;;;;;-5.08;75.97;141044.86;1758694;81;20951;-60
2022/01/25 07:19:25;;;;;;;18.25;7.62;;;;;;;-5.03;75.76;141057.23;1775181;81;20940;-59
2022/01/25 07:21:52;;;;;;;13.08;7.30;;;;;;;-5.02;75.53;141059.69;1766497;79;21437;-59
2022/01/25 07:24:19;;;;;;;13.28;7.47;;;;;;;-4.96;75.14;141072.06;1709793;83;20964;-59
2022/01/25 07:26:47;;;;;;;13.88;7.20;;;;;;;-5.19;74.29;141017.66;1749217;82;21049;-59
2022/01/25 07:29:15;;;;;;;13.38;7.45;;;;;;;-5.33;74.78;140983.02;1749196;81;20942;-59
2022/01/25 07:31:42;;;;;;;12.35;6.58;;;;;;;-5.40;74.10;140966.91;1749258;81;21484;-58
2022/01/25 07:34:09;;;;;;;14.45;7.45;;;;;;;-5.62;74.35;140913.78;1751221;81;20987;-60
2022/01/25 07:36:37;;;;;;;11.45;6.37;;;;;;;-5.70;74.73;140895.23;1749639;81;20929;-63
2022/01/25 07:39:05;;;;;;;11.40;7.45;;;;;;;-5.62;74.71;140913.78;1719701;82;20981;-63
2022/01/25 07:41:32;;;;;;;12.93;6.70;;;;;;;-5.51;74.59;140939.73;1719605;82;21459;-62
2022/01/25 07:43:59;;;;;;;14.07;7.70;;;;;;;-5.38;74.13;140970.64;1727793;81;21130;-63
2022/01/25 07:46:29;;;;;;;12.23;7.70;;;;;;;-5.39;74.29;140968.14;1751888;81;21454;-61
2022/01/25 07:48:57;;;;;;;16.62;8.65;;;;;;;-5.34;74.23;140981.78;1713520;84;20971;-62
2022/01/25 07:51:30;;;;;;;13.00;7.70;;;;;;;-5.31;73.56;140987.97;1749384;82;20946;-61
2022/01/25 07:53:54;;;;;;;14.40;9.13;;;;;;;-5.34;74.12;140980.52;1748864;81;20953;-60
2022/01/25 07:56:22;;;;;;;14.47;8.53;;;;;;;-5.17;74.46;141021.34;1749278;81;20978;-61
2022/01/25 07:58:49;;;;;;;11.93;7.10;;;;;;;-5.07;73.77;141047.31;1750311;81;20982;-61
2022/01/25 08:01:16;;;;;;;17.87;8.03;;;;;;;-5.25;72.77;141004.02;1749630;81;21423;-61
2022/01/25 08:03:44;;;;;;;13.13;7.17;;;;;;;-5.54;72.99;140933.55;1749194;82;20972;-61
2022/01/25 08:06:12;;;;;;;14.38;7.70;;;;;;;-5.57;73.78;140926.14;1748505;81;21005;-61
2022/01/25 08:08:41;;;;;;;16.57;8.23;;;;;;;-5.43;73.87;140959.50;1709005;83;21463;-60
2022/01/25 08:11:07;;;;;;;18.42;8.80;;;;;;;-5.33;73.87;140984.25;1748745;81;20980;-61
2022/01/25 08:13:37;;;;;;;22.00;11.57;;;;;;;-5.21;73.66;141012.70;1712421;83;21120;-61
2022/01/25 08:16:04;;;;;;;15.43;9.15;;;;;;;-5.11;73.21;141037.44;1745028;81;20988;-62
2022/01/25 08:18:31;;;;;;;18.87;11.45;;;;;;;-5.07;72.56;141047.31;1746817;81;20995;-61
2022/01/25 08:20:58;;;;;;;20.27;9.35;;;;;;;-5.00;72.55;141062.19;1746069;81;21011;-61
2022/01/25 08:23:24;;;;;;;13.32;7.75;;;;;;;-4.91;72.29;141085.70;1710148;84;21000;-61
2022/01/25 08:25:51;;;;;;;15.03;7.62;;;;;;;-4.82;71.92;141106.72;1742795;82;20988;-61
2022/01/25 08:28:18;;;;;;;13.58;7.92;;;;;;;-4.79;71.10;141114.13;1739985;81;21031;-61
2022/01/25 08:30:44;;;;;;;16.15;8.55;;;;;;;-4.81;71.08;141109.17;1708777;84;20983;-61
2022/01/25 08:33:11;;;;;;;21.68;11.93;;;;;;;-4.70;70.70;141136.42;1746494;81;21032;-61
2022/01/25 08:35:38;;;;;;;13.78;7.90;;;;;;;-4.55;70.57;141172.33;1748556;81;21006;-61
2022/01/25 08:38:05;;;;;;;16.82;10.28;;;;;;;-4.36;70.04;141218.11;1710590;83;21039;-62
2022/01/25 08:40:34;;;;;;;15.08;8.75;;;;;;;-4.09;70.16;141283.73;1744207;81;20977;-61
2022/01/25 08:43:02;;;;;;;14.13;8.53;;;;;;;-3.75;69.35;141366.69;1710205;84;21517;-61
2022/01/25 08:45:29;;;;;;;14.45;8.73;;;;;;;-3.33;68.92;141468.31;1751960;81;21008;-61
2022/01/25 08:47:56;;;;;;;14.18;7.97;;;;;;;-2.61;68.25;141641.84;1773557;81;21054;-61
2022/01/25 08:50:24;;;;;;;15.03;8.90;;;;;;;-1.89;64.95;141815.48;1774198;79;21025;-62
2022/01/25 08:52:51;;;;;;;18.50;8.85;;;;;;;-1.59;64.92;141889.94;1711579;82;21510;-61
2022/01/25 08:55:18;;;;;;;15.18;9.05;;;;;;;-1.27;62.47;141966.94;1774604;79;21020;-61
2022/01/25 08:57:45;;;;;;;15.40;8.60;;;;;;;-1.13;62.17;142001.67;1774511;79;21508;-62
2022/01/25 09:00:13;;;;;;;19.95;9.80;;;;;;;-1.05;61.61;142019.06;1750996;81;20951;-61
2022/01/25 09:02:41;;;;;;;13.88;9.23;;;;;;;-0.87;60.31;142063.75;1750681;81;21454;-61
2022/01/25 09:05:09;;;;;;;14.30;9.35;;;;;;;-0.79;59.71;142083.66;1712891;82;21027;-61
2022/01/25 09:07:36;;;;;;;16.97;9.50;;;;;;;-0.74;57.98;142096.09;1748837;81;21038;-61
2022/01/25 09:10:04;;;;;;;15.70;9.58;;;;;;;-0.90;57.10;142056.31;1706135;83;20979;-62
2022/01/25 09:12:31;;;;;;;18.48;10.25;;;;;;;-1.05;57.42;142019.06;1701785;82;21003;-60
2022/01/25 09:14:59;;;;;;;13.98;8.93;;;;;;;-1.13;57.19;142000.44;1702973;83;21447;-61
2022/01/25 09:17:26;;;;;;;15.00;8.75;;;;;;;-1.34;56.79;141949.55;1725883;82;21011;-61
2022/01/25 09:19:53;;;;;;;16.15;9.53;;;;;;;-1.76;57.24;141847.73;1721999;83;21489;-61
2022/01/25 09:22:19;;;;;;;21.68;10.78;;;;;;;-2.02;57.98;141784.47;1694524;83;21044;-61
2022/01/25 09:24:46;;;;;;;22.35;10.15;;;;;;;-2.10;58.71;141765.86;1698446;84;20983;-61
2022/01/25 09:27:13;;;;;;;15.88;10.30;;;;;;;-2.03;59.08;141783.23;1720442;82;21011;-61
2022/01/25 09:29:39;;;;;;;18.00;10.10;;;;;;;-2.11;58.54;141763.41;1716831;83;21462;-62
2022/01/25 09:32:07;;;;;;;18.35;10.68;;;;;;;-2.20;59.05;141741.06;1687622;84;21066;-61
2022/01/25 09:34:33;;;;;;;24.72;12.88;;;;;;;-2.11;59.29;141763.41;1686869;85;21016;-60
2022/01/25 09:37:01;;;;;;;20.05;11.08;;;;;;;-2.10;58.82;141764.63;1686885;85;20989;-61
2022/01/25 09:39:28;;;;;;;20.97;11.53;;;;;;;-2.12;59.23;141759.66;1692777;83;21478;-61
2022/01/25 09:41:55;;;;;;;20.12;10.43;;;;;;;-2.02;59.21;141785.70;1710087;83;20956;-61
2022/01/25 09:44:23;;;;;;;22.30;12.05;;;;;;;-1.83;59.06;141830.36;1716939;82;20948;-63
2022/01/25 09:46:56;;;;;;;17.85;10.72;;;;;;;-1.74;58.34;141852.72;1712718;83;21009;-61
2022/01/25 09:49:23;;;;;;;20.10;11.12;;;;;;;-1.73;57.56;141855.22;1717943;83;21027;-61
2022/01/25 09:51:50;;;;;;;21.48;12.55;;;;;;;-1.79;57.38;141840.31;1716123;83;21024;-61
2022/01/25 09:54:17;;;;;;;22.32;12.05;;;;;;;-1.81;57.34;141836.56;1671403;83;21496;-63
2022/01/25 09:56:44;;;;;;;24.80;12.47;;;;;;;-1.89;56.92;141816.72;1725372;82;20984;-62
2022/01/25 09:59:11;;;;;;;25.75;13.03;;;;;;;-2.09;57.25;141768.33;1725914;83;21014;-62
2022/01/25 10:01:38;;;;;;;26.93;12.50;;;;;;;-2.23;57.83;141733.63;1725314;83;21024;-62
2022/01/25 10:04:30;;;;;;;25.05;14.30;;;;;;;-2.35;58.14;141703.84;1725874;83;21090;-62
2022/01/25 10:06:57;;;;;;;25.48;13.22;;;;;;;-2.53;58.60;141661.67;1726036;83;20995;-61
2022/01/25 10:09:25;;;;;;;19.32;10.10;;;;;;;-2.66;59.28;141629.44;1725928;82;21145;-62
2022/01/25 10:11:51;;;;;;;23.67;12.45;;;;;;;-2.67;59.32;141628.22;1690679;83;21514;-62
2022/01/25 10:14:23;;;;;;;24.20;12.88;;;;;;;-2.58;59.32;141648.05;1756140;80;20939;-62
2022/01/25 10:16:54;;;;;;;26.48;13.28;;;;;;;-2.57;59.37;141651.78;1748884;81;20989;-61
2022/01/25 10:19:26;;;;;;;23.35;14.05;;;;;;;-2.60;59.29;141643.06;1747429;82;20949;-61
2022/01/25 10:21:53;;;;;;;;;;;;;;;-2.63;59.49;141638.09;1750896;81;20942;-61
2022/01/25 10:30:15;;;;;;;25.30;13.95;;;;;;;-2.68;59.83;141624.47;1719417;82;20993;-61
2022/01/25 10:32:42;;;;;;;27.35;15.00;;;;;;;-2.70;59.90;141620.73;1719378;83;21044;-61
2022/01/25 10:35:16;;;;;;;25.20;13.32;;;;;;;-2.65;59.88;141631.91;1709354;83;21093;-62
2022/01/25 10:37:43;;;;;;;27.40;14.78;;;;;;;-2.59;59.90;141646.81;1748441;80;20971;-61
2022/01/25 10:40:11;;;;;;;28.45;14.28;;;;;;;-2.54;59.99;141659.20;1770649;79;20988;-61
2022/01/25 10:42:38;;;;;;;25.70;13.62;;;;;;;-2.49;59.87;141670.38;1771748;81;20995;-61
2022/01/25 10:45:10;;;;;;;22.32;12.40;;;;;;;-2.47;59.86;141676.58;1749133;81;21008;-61
2022/01/25 10:47:50;;;;;;;27.42;15.43;;;;;;;-2.43;59.73;141685.25;1755192;81;20952;-62
2022/01/25 10:50:25;;;;;;;29.35;16.52;;;;;;;-2.36;59.74;141702.61;1774948;81;21477;-61
2022/01/25 10:53:17;;;;;;;26.15;14.83;;;;;;;-2.31;59.62;141715.02;1768269;80;21451;-62
2022/01/25 10:55:51;;;;;;;18.95;12.20;;;;;;;-2.15;59.45;141753.47;1769938;81;21468;-62
2022/01/25 10:58:18;;;;;;;25.85;13.08;;;;;;;-2.18;59.27;141746.03;1765227;81;20945;-62
2022/01/25 11:00:49;;;;;;;22.00;12.15;;;;;;;-2.12;59.15;141759.66;1769690;81;21446;-62
2022/01/25 11:03:41;;;;;;;22.87;12.63;;;;;;;-2.21;59.11;141739.81;1774775;81;20976;-61
2022/01/25 11:06:18;;;;;;;21.42;12.07;;;;;;;-2.20;59.06;141741.06;1775084;79;21465;-62
2022/01/25 11:08:49;;;;;;;20.88;11.75;;;;;;;-2.20;59.55;141742.28;1763570;81;21063;-62
2022/01/25 11:11:26;;;;;;;31.82;16.00;;;;;;;-2.08;59.22;141770.84;1750265;81;21001;-61
2022/01/25 11:13:56;;;;;;;37.55;18.90;;;;;;;-2.20;59.17;141741.06;1762460;81;21004;-62
2022/01/25 11:16:23;;;;;;;27.62;17.05;;;;;;;-2.32;59.32;141712.50;1762560;80;21431;-61
2022/01/25 11:18:50;;;;;;;27.90;15.70;;;;;;;-2.42;59.76;141688.98;1773016;80;20976;-62
2022/01/25 11:21:17;;;;;;;19.07;11.60;;;;;;;-2.44;59.96;141684.02;1783578;80;21450;-61
2022/01/25 11:23:44;;;;;;;19.80;10.88;;;;;;;-2.46;59.92;141677.81;1783556;80;21035;-61
2022/01/25 11:26:14;;;;;;;22.37;11.83;;;;;;;-2.48;60.17;141674.08;1772299;80;21008;-62
2022/01/25 11:28:42;;;;;;;20.48;9.70;;;;;;;-2.38;59.86;141696.41;1773645;80;20979;-61
2022/01/25 11:31:14;;;;;;;19.80;11.80;;;;;;;-2.34;59.65;141706.31;1769956;79;20980;-61
2022/01/25 11:33:45;;;;;;;22.77;12.25;;;;;;;-2.34;59.47;141706.31;1773318;80;21465;-62
2022/01/25 11:36:12;;;;;;;23.40;12.80;;;;;;;-2.40;59.55;141693.91;1792349;79;21046;-62
2022/01/25 11:38:48;;;;;;;20.37;10.58;;;;;;;-2.48;59.35;141674.08;1773188;80;20942;-62
2022/01/25 11:41:19;;;;;;;17.70;10.13;;;;;;;-2.60;59.57;141644.30;1760912;81;20962;-61
2022/01/25 11:44:06;;;;;;;19.45;11.75;;;;;;;-2.74;59.78;141609.62;1761019;81;20985;-61
2022/01/25 11:46:34;;;;;;;20.88;10.75;;;;;;;-2.81;60.04;141592.25;1669461;83;20992;-61
2022/01/25 11:49:17;;;;;;;20.20;10.82;;;;;;;-2.74;60.25;141609.62;1724960;82;20984;-61
2022/01/25 11:51:46;;;;;;;22.48;12.23;;;;;;;-2.63;60.16;141636.88;1724907;83;20995;-62
2022/01/25 11:54:12;;;;;;;22.73;12.37;;;;;;;-2.50;60.03;141669.09;1724974;83;20992;-62
2022/01/25 11:56:41;;;;;;;25.70;13.93;;;;;;;-2.41;59.79;141691.44;1725030;83;21506;-62
2022/01/25 11:59:10;;;;;;;23.02;11.65;;;;;;;-2.41;59.96;141690.22;1725068;83;21012;-62
2022/01/25 12:01:37;;;;;;;20.12;12.15;;;;;;;-2.48;59.72;141672.84;1698552;83;21011;-61
2022/01/25 12:04:07;;;;;;;21.80;12.20;;;;;;;-2.47;59.86;141676.58;1724935;82;20980;-62
2022/01/25 12:06:45;;;;;;;32.63;14.30;;;;;;;-2.43;59.78;141686.47;1724917;83;21074;-60
2022/01/25 12:09:30;;;;;;;25.32;14.18;;;;;;;-2.38;59.62;141697.64;1724245;82;20991;-60
2022/01/25 12:12:01;;;;;;;24.85;11.93;;;;;;;-2.41;59.54;141691.44;1721407;82;21047;-61
2022/01/25 12:14:38;;;;;;;;;;;;;;;-2.43;59.60;141686.47;1721982;83;21004;-61
2022/01/25 12:17:09;;;;;;;23.30;11.80;;;;;;;-2.54;59.34;141659.20;1740439;81;20089;-62
2022/01/25 12:19:50;;;;;;;22.07;12.58;;;;;;;-2.77;59.60;141603.41;1723041;81;21012;-60
2022/01/25 12:25:27;;;;;;;23.18;12.58;;;;;;;-3.01;60.25;141545.12;1756038;82;21055;-61
2022/01/25 12:27:59;;;;;;;23.27;13.80;;;;;;;-3.13;60.40;141516.66;1756235;81;21036;-60
2022/01/25 12:30:42;;;;;;;28.95;15.88;;;;;;;-3.28;60.59;141479.47;1756257;80;20992;-62
2022/01/25 12:33:30;;;;;;;42.58;20.90;;;;;;;-3.38;60.86;141455.92;1757061;80;21000;-59
2022/01/25 12:36:04;;;;;;;29.10;16.93;;;;;;;-3.42;60.98;141445.98;1757264;82;20996;-61
2022/01/25 12:38:52;;;;;;;34.60;15.85;;;;;;;-3.48;61.25;141429.91;1757286;82;20984;-61
2022/01/25 12:41:27;;;;;;;27.07;15.65;;;;;;;-3.49;61.47;141428.63;1757328;80;21025;-61
2022/01/25 12:43:59;;;;;;;28.57;15.48;;;;;;;-3.42;61.40;141444.75;1757281;81;21000;-59
2022/01/25 12:46:30;;;;;;;20.50;11.90;;;;;;;-3.42;61.46;141445.98;1757274;82;20941;-61
2022/01/25 12:49:01;;;;;;;24.70;12.90;;;;;;;-3.40;61.43;141449.72;1757396;82;21000;-59
2022/01/25 12:51:37;;;;;;;23.83;13.00;;;;;;;-3.46;61.52;141436.11;1757373;80;21156;-60
2022/01/25 12:54:08;;;;;;;33.05;17.07;;;;;;;-3.46;61.47;141436.11;1757267;82;20992;-61
2022/01/25 12:56:43;;;;;;;24.40;14.17;;;;;;;-3.47;61.69;141433.59;1758830;80;21609;-60
2022/01/25 12:59:14;;;;;;;28.80;15.40;;;;;;;-3.47;61.51;141432.38;1768078;80;21694;-61
2022/01/25 13:01:43;;;;;;;30.75;15.70;;;;;;;-3.71;61.87;141375.39;1780448;81;20972;-61
2022/01/25 13:04:11;;;;;;;36.35;15.30;;;;;;;-3.74;62.24;141369.20;1780398;79;20952;-59
2022/01/25 13:06:43;;;;;;;36.77;19.45;;;;;;;-3.72;62.38;141374.13;1780439;81;21485;-59
2022/01/25 13:09:19;;;;;;;28.27;15.55;;;;;;;-3.64;62.50;141391.47;1778753;81;21524;-62
2022/01/25 13:12:09;;;;;;;31.82;17.90;;;;;;;-3.58;62.51;141407.59;1779636;79;21461;-61
2022/01/25 13:17:20;;;;;;;26.87;15.98;;;;;;;-3.73;62.70;141371.66;1775013;81;20999;-61